sensor_id;sensor_type;location;lat;lon;timestamp;P1;durP1;ratioP1;P2;durP2;ratioP2
78740;SDS011;68062;48.726;9.370;2023-02-24T00:02:23;13.10;;;9.03;;
78740;SDS011;68062;48.726;9.370;2023-02-24T00:04:49;11.00;;;7.90;;
78740;SDS011;68062;48.726;9.370;2023-02-24T00:07:17;11.37;;;8.73;;
78740;SDS011;68062;48.726;9.370;2023-02-24T00:09:44;15.13;;;10.00;;
78740;SDS011;68062;48.726;9.370;2023-02-24T00:12:13;15.37;;;11.67;;
78740;SDS011;68062;48.726;9.370;2023-02-24T00:14:41;13.40;;;9.20;;
78740;SDS011;68062;48.726;9.370;2023-02-24T00:17:09;17.30;;;10.37;;
78740;SDS011;68062;48.726;9.370;2023-02-24T00:19:38;14.13;;;9.17;;
78740;SDS011;68062;48.726;9.370;2023-02-24T00:22:05;12.77;;;9.33;;
78740;SDS011;68062;48.726;9.370;2023-02-24T00:24:34;16.20;;;9.27;;
78740;SDS011;68062;48.726;9.370;2023-02-24T00:27:01;13.47;;;9.03;;
78740;SDS011;68062;48.726;9.370;2023-02-24T00:29:31;14.10;;;9.20;;
78740;SDS011;68062;48.726;9.370;2023-02-24T00:32:01;14.83;;;9.33;;
78740;SDS011;68062;48.726;9.370;2023-02-24T00:34:31;14.13;;;9.00;;
78740;SDS011;68062;48.726;9.370;2023-02-24T00:37:00;13.93;;;10.10;;
78740;SDS011;68062;48.726;9.370;2023-02-24T00:39:27;15.13;;;9.33;;
78740;SDS011;68062;48.726;9.370;2023-02-24T00:41:58;15.80;;;10.33;;
78740;SDS011;68062;48.726;9.370;2023-02-24T00:44:29;21.27;;;9.80;;
78740;SDS011;68062;48.726;9.370;2023-02-24T00:46:57;14.80;;;10.40;;
78740;SDS011;68062;48.726;9.370;2023-02-24T00:49:25;13.87;;;8.10;;
78740;SDS011;68062;48.726;9.370;2023-02-24T00:51:51;13.60;;;9.93;;
78740;SDS011;68062;48.726;9.370;2023-02-24T00:54:18;12.13;;;9.20;;
78740;SDS011;68062;48.726;9.370;2023-02-24T00:56:46;12.67;;;9.47;;
78740;SDS011;68062;48.726;9.370;2023-02-24T00:59:16;14.83;;;8.97;;
78740;SDS011;68062;48.726;9.370;2023-02-24T01:01:43;14.30;;;8.87;;
78740;SDS011;68062;48.726;9.370;2023-02-24T01:04:11;11.97;;;9.07;;
78740;SDS011;68062;48.726;9.370;2023-02-24T01:06:39;11.47;;;9.63;;
78740;SDS011;68062;48.726;9.370;2023-02-24T01:09:08;16.47;;;9.60;;
78740;SDS011;68062;48.726;9.370;2023-02-24T01:11:37;14.97;;;10.17;;
78740;SDS011;68062;48.726;9.370;2023-02-24T01:14:24;13.93;;;9.87;;
78740;SDS011;68062;48.726;9.370;2023-02-24T01:16:52;16.80;;;10.47;;
78740;SDS011;68062;48.726;9.370;2023-02-24T01:19:20;12.23;;;9.50;;
78740;SDS011;68062;48.726;9.370;2023-02-24T01:21:48;16.23;;;9.33;;
78740;SDS011;68062;48.726;9.370;2023-02-24T01:24:19;14.03;;;8.90;;
78740;SDS011;68062;48.726;9.370;2023-02-24T01:26:45;15.33;;;9.47;;
78740;SDS011;68062;48.726;9.370;2023-02-24T01:29:12;13.20;;;9.70;;
78740;SDS011;68062;48.726;9.370;2023-02-24T01:31:40;13.90;;;11.00;;
78740;SDS011;68062;48.726;9.370;2023-02-24T01:34:07;12.17;;;8.67;;
78740;SDS011;68062;48.726;9.370;2023-02-24T01:36:35;13.70;;;9.13;;
78740;SDS011;68062;48.726;9.370;2023-02-24T01:39:03;13.17;;;9.73;;
78740;SDS011;68062;48.726;9.370;2023-02-24T01:41:35;11.23;;;8.93;;
78740;SDS011;68062;48.726;9.370;2023-02-24T01:44:03;13.50;;;8.93;;
78740;SDS011;68062;48.726;9.370;2023-02-24T01:46:34;14.30;;;8.50;;
78740;SDS011;68062;48.726;9.370;2023-02-24T01:49:04;12.70;;;8.37;;
78740;SDS011;68062;48.726;9.370;2023-02-24T01:51:37;12.90;;;8.50;;
78740;SDS011;68062;48.726;9.370;2023-02-24T01:54:06;11.50;;;8.30;;
78740;SDS011;68062;48.726;9.370;2023-02-24T01:56:35;12.77;;;9.27;;
78740;SDS011;68062;48.726;9.370;2023-02-24T01:59:03;14.53;;;9.40;;
78740;SDS011;68062;48.726;9.370;2023-02-24T02:01:30;15.00;;;9.13;;
78740;SDS011;68062;48.726;9.370;2023-02-24T02:04:06;13.00;;;8.97;;
78740;SDS011;68062;48.726;9.370;2023-02-24T02:06:41;12.63;;;8.77;;
78740;SDS011;68062;48.726;9.370;2023-02-24T02:09:08;14.27;;;9.90;;
78740;SDS011;68062;48.726;9.370;2023-02-24T02:11:35;11.60;;;9.00;;
78740;SDS011;68062;48.726;9.370;2023-02-24T02:14:01;14.03;;;9.80;;
78740;SDS011;68062;48.726;9.370;2023-02-24T02:16:37;14.33;;;9.23;;
78740;SDS011;68062;48.726;9.370;2023-02-24T02:22:36;13.57;;;8.83;;
78740;SDS011;68062;48.726;9.370;2023-02-24T02:25:19;11.23;;;7.97;;
78740;SDS011;68062;48.726;9.370;2023-02-24T02:28:08;12.17;;;8.83;;
78740;SDS011;68062;48.726;9.370;2023-02-24T02:30:46;12.07;;;8.97;;
78740;SDS011;68062;48.726;9.370;2023-02-24T02:33:45;11.03;;;8.60;;
78740;SDS011;68062;48.726;9.370;2023-02-24T02:36:29;12.07;;;8.87;;
78740;SDS011;68062;48.726;9.370;2023-02-24T02:39:02;16.87;;;9.70;;
78740;SDS011;68062;48.726;9.370;2023-02-24T02:41:39;9.13;;;8.10;;
78740;SDS011;68062;48.726;9.370;2023-02-24T02:44:15;12.97;;;9.57;;
78740;SDS011;68062;48.726;9.370;2023-02-24T02:46:46;14.20;;;8.67;;
78740;SDS011;68062;48.726;9.370;2023-02-24T02:49:20;12.20;;;8.40;;
78740;SDS011;68062;48.726;9.370;2023-02-24T02:51:50;10.87;;;8.47;;
78740;SDS011;68062;48.726;9.370;2023-02-24T02:54:22;11.33;;;8.20;;
78740;SDS011;68062;48.726;9.370;2023-02-24T02:56:55;14.30;;;10.47;;
78740;SDS011;68062;48.726;9.370;2023-02-24T02:59:27;12.63;;;9.20;;
78740;SDS011;68062;48.726;9.370;2023-02-24T03:01:57;14.97;;;9.57;;
78740;SDS011;68062;48.726;9.370;2023-02-24T03:04:37;13.30;;;9.50;;
78740;SDS011;68062;48.726;9.370;2023-02-24T03:07:06;15.13;;;8.47;;
78740;SDS011;68062;48.726;9.370;2023-02-24T03:09:35;14.63;;;9.37;;
78740;SDS011;68062;48.726;9.370;2023-02-24T03:12:06;16.10;;;9.53;;
78740;SDS011;68062;48.726;9.370;2023-02-24T03:14:36;9.57;;;7.93;;
78740;SDS011;68062;48.726;9.370;2023-02-24T03:17:08;11.40;;;8.50;;
78740;SDS011;68062;48.726;9.370;2023-02-24T03:19:41;13.20;;;8.10;;
78740;SDS011;68062;48.726;9.370;2023-02-24T03:22:14;12.00;;;9.40;;
78740;SDS011;68062;48.726;9.370;2023-02-24T03:24:44;12.17;;;8.97;;
78740;SDS011;68062;48.726;9.370;2023-02-24T03:27:12;20.63;;;11.53;;
78740;SDS011;68062;48.726;9.370;2023-02-24T03:29:45;15.53;;;11.23;;
78740;SDS011;68062;48.726;9.370;2023-02-24T03:32:17;17.33;;;11.37;;
78740;SDS011;68062;48.726;9.370;2023-02-24T03:34:54;17.97;;;11.30;;
78740;SDS011;68062;48.726;9.370;2023-02-24T03:37:23;18.17;;;9.70;;
78740;SDS011;68062;48.726;9.370;2023-02-24T03:39:52;17.00;;;10.97;;
78740;SDS011;68062;48.726;9.370;2023-02-24T03:42:21;13.07;;;9.57;;
78740;SDS011;68062;48.726;9.370;2023-02-24T03:44:52;15.50;;;10.50;;
78740;SDS011;68062;48.726;9.370;2023-02-24T03:47:22;12.27;;;10.00;;
78740;SDS011;68062;48.726;9.370;2023-02-24T03:49:49;13.30;;;10.03;;
78740;SDS011;68062;48.726;9.370;2023-02-24T03:52:19;15.97;;;9.83;;
78740;SDS011;68062;48.726;9.370;2023-02-24T03:55:06;12.77;;;10.10;;
78740;SDS011;68062;48.726;9.370;2023-02-24T03:57:44;15.10;;;10.30;;
78740;SDS011;68062;48.726;9.370;2023-02-24T04:00:24;14.30;;;10.47;;
78740;SDS011;68062;48.726;9.370;2023-02-24T04:03:01;16.50;;;10.23;;
78740;SDS011;68062;48.726;9.370;2023-02-24T04:05:38;16.83;;;11.10;;
78740;SDS011;68062;48.726;9.370;2023-02-24T04:08:11;21.77;;;11.50;;
78740;SDS011;68062;48.726;9.370;2023-02-24T04:10:40;16.60;;;11.40;;
78740;SDS011;68062;48.726;9.370;2023-02-24T04:13:17;13.90;;;9.57;;
78740;SDS011;68062;48.726;9.370;2023-02-24T04:15:49;15.93;;;10.43;;
78740;SDS011;68062;48.726;9.370;2023-02-24T04:18:23;16.03;;;10.40;;
78740;SDS011;68062;48.726;9.370;2023-02-24T04:20:54;16.10;;;9.83;;
78740;SDS011;68062;48.726;9.370;2023-02-24T04:23:24;16.67;;;10.53;;
78740;SDS011;68062;48.726;9.370;2023-02-24T04:25:55;18.97;;;10.90;;
78740;SDS011;68062;48.726;9.370;2023-02-24T04:28:22;18.37;;;11.33;;
78740;SDS011;68062;48.726;9.370;2023-02-24T04:30:52;15.27;;;9.97;;
78740;SDS011;68062;48.726;9.370;2023-02-24T04:33:21;15.10;;;11.13;;
78740;SDS011;68062;48.726;9.370;2023-02-24T04:35:48;16.30;;;10.53;;
78740;SDS011;68062;48.726;9.370;2023-02-24T04:38:18;14.87;;;10.40;;
78740;SDS011;68062;48.726;9.370;2023-02-24T04:40:45;13.07;;;10.27;;
78740;SDS011;68062;48.726;9.370;2023-02-24T04:43:13;15.47;;;11.00;;
78740;SDS011;68062;48.726;9.370;2023-02-24T04:45:40;13.00;;;9.50;;
78740;SDS011;68062;48.726;9.370;2023-02-24T04:48:06;14.40;;;11.40;;
78740;SDS011;68062;48.726;9.370;2023-02-24T04:50:37;15.20;;;10.53;;
78740;SDS011;68062;48.726;9.370;2023-02-24T04:53:06;17.20;;;11.30;;
78740;SDS011;68062;48.726;9.370;2023-02-24T04:55:37;14.30;;;10.80;;
78740;SDS011;68062;48.726;9.370;2023-02-24T04:58:05;15.97;;;10.80;;
78740;SDS011;68062;48.726;9.370;2023-02-24T05:00:31;17.43;;;11.53;;
78740;SDS011;68062;48.726;9.370;2023-02-24T05:03:00;13.83;;;10.57;;
78740;SDS011;68062;48.726;9.370;2023-02-24T05:05:28;16.37;;;11.10;;
78740;SDS011;68062;48.726;9.370;2023-02-24T05:07:58;14.70;;;10.40;;
78740;SDS011;68062;48.726;9.370;2023-02-24T05:10:28;17.00;;;10.20;;
78740;SDS011;68062;48.726;9.370;2023-02-24T05:12:58;18.20;;;11.43;;
78740;SDS011;68062;48.726;9.370;2023-02-24T05:15:26;15.63;;;10.70;;
78740;SDS011;68062;48.726;9.370;2023-02-24T05:17:55;19.17;;;11.43;;
78740;SDS011;68062;48.726;9.370;2023-02-24T05:20:23;16.63;;;11.33;;
78740;SDS011;68062;48.726;9.370;2023-02-24T05:23:07;12.27;;;10.27;;
78740;SDS011;68062;48.726;9.370;2023-02-24T05:25:35;15.20;;;10.57;;
78740;SDS011;68062;48.726;9.370;2023-02-24T05:28:03;16.30;;;10.60;;
78740;SDS011;68062;48.726;9.370;2023-02-24T05:30:31;13.87;;;10.50;;
78740;SDS011;68062;48.726;9.370;2023-02-24T05:32:58;16.30;;;10.47;;
78740;SDS011;68062;48.726;9.370;2023-02-24T05:35:25;17.30;;;11.20;;
78740;SDS011;68062;48.726;9.370;2023-02-24T05:37:51;22.17;;;12.43;;
78740;SDS011;68062;48.726;9.370;2023-02-24T05:40:22;20.43;;;13.07;;
78740;SDS011;68062;48.726;9.370;2023-02-24T05:42:49;28.87;;;15.03;;
78740;SDS011;68062;48.726;9.370;2023-02-24T05:45:17;24.67;;;16.00;;
78740;SDS011;68062;48.726;9.370;2023-02-24T05:47:44;40.70;;;24.17;;
78740;SDS011;68062;48.726;9.370;2023-02-24T05:50:11;40.73;;;22.53;;
78740;SDS011;68062;48.726;9.370;2023-02-24T05:52:38;42.90;;;22.20;;
78740;SDS011;68062;48.726;9.370;2023-02-24T05:55:05;47.70;;;24.37;;
78740;SDS011;68062;48.726;9.370;2023-02-24T05:57:37;46.77;;;23.20;;
78740;SDS011;68062;48.726;9.370;2023-02-24T06:00:05;42.60;;;23.70;;
78740;SDS011;68062;48.726;9.370;2023-02-24T06:02:41;46.40;;;23.43;;
78740;SDS011;68062;48.726;9.370;2023-02-24T06:05:13;46.30;;;26.50;;
78740;SDS011;68062;48.726;9.370;2023-02-24T06:07:55;50.30;;;24.50;;
78740;SDS011;68062;48.726;9.370;2023-02-24T06:10:30;48.70;;;25.83;;
78740;SDS011;68062;48.726;9.370;2023-02-24T06:12:59;46.13;;;22.37;;
78740;SDS011;68062;48.726;9.370;2023-02-24T06:15:26;42.97;;;23.10;;
78740;SDS011;68062;48.726;9.370;2023-02-24T06:17:54;39.90;;;22.10;;
78740;SDS011;68062;48.726;9.370;2023-02-24T06:20:25;45.90;;;23.70;;
78740;SDS011;68062;48.726;9.370;2023-02-24T06:22:53;43.00;;;22.27;;
78740;SDS011;68062;48.726;9.370;2023-02-24T06:25:22;48.00;;;23.87;;
78740;SDS011;68062;48.726;9.370;2023-02-24T06:27:50;43.97;;;22.50;;
78740;SDS011;68062;48.726;9.370;2023-02-24T06:30:21;35.97;;;21.20;;
78740;SDS011;68062;48.726;9.370;2023-02-24T06:32:48;44.10;;;24.37;;
78740;SDS011;68062;48.726;9.370;2023-02-24T06:35:19;47.60;;;21.83;;
78740;SDS011;68062;48.726;9.370;2023-02-24T06:37:46;38.00;;;21.13;;
78740;SDS011;68062;48.726;9.370;2023-02-24T06:40:14;43.90;;;22.50;;
78740;SDS011;68062;48.726;9.370;2023-02-24T06:42:44;47.70;;;20.87;;
78740;SDS011;68062;48.726;9.370;2023-02-24T06:45:11;42.03;;;19.77;;
78740;SDS011;68062;48.726;9.370;2023-02-24T06:47:39;49.93;;;23.53;;
78740;SDS011;68062;48.726;9.370;2023-02-24T06:50:07;55.73;;;22.87;;
78740;SDS011;68062;48.726;9.370;2023-02-24T06:52:35;48.87;;;23.03;;
78740;SDS011;68062;48.726;9.370;2023-02-24T06:55:02;37.83;;;21.40;;
78740;SDS011;68062;48.726;9.370;2023-02-24T06:57:29;43.83;;;22.10;;
78740;SDS011;68062;48.726;9.370;2023-02-24T06:59:58;46.60;;;22.40;;
78740;SDS011;68062;48.726;9.370;2023-02-24T07:02:25;47.27;;;23.70;;
78740;SDS011;68062;48.726;9.370;2023-02-24T07:04:58;47.00;;;23.03;;
78740;SDS011;68062;48.726;9.370;2023-02-24T07:07:25;50.80;;;23.57;;
78740;SDS011;68062;48.726;9.370;2023-02-24T07:09:54;48.70;;;23.77;;
78740;SDS011;68062;48.726;9.370;2023-02-24T07:12:21;58.80;;;24.43;;
78740;SDS011;68062;48.726;9.370;2023-02-24T07:14:48;54.33;;;25.73;;
78740;SDS011;68062;48.726;9.370;2023-02-24T07:17:15;49.53;;;22.77;;
78740;SDS011;68062;48.726;9.370;2023-02-24T07:19:43;50.80;;;24.97;;
78740;SDS011;68062;48.726;9.370;2023-02-24T07:22:10;52.97;;;25.40;;
78740;SDS011;68062;48.726;9.370;2023-02-24T07:24:38;50.60;;;24.03;;
78740;SDS011;68062;48.726;9.370;2023-02-24T07:27:12;48.13;;;22.50;;
78740;SDS011;68062;48.726;9.370;2023-02-24T07:29:45;57.47;;;25.77;;
78740;SDS011;68062;48.726;9.370;2023-02-24T07:32:13;51.23;;;25.03;;
78740;SDS011;68062;48.726;9.370;2023-02-24T07:34:40;48.30;;;23.43;;
78740;SDS011;68062;48.726;9.370;2023-02-24T07:37:07;51.97;;;24.53;;
78740;SDS011;68062;48.726;9.370;2023-02-24T07:39:34;44.43;;;20.30;;
78740;SDS011;68062;48.726;9.370;2023-02-24T07:42:01;58.73;;;23.60;;
78740;SDS011;68062;48.726;9.370;2023-02-24T07:44:32;48.03;;;22.40;;
78740;SDS011;68062;48.726;9.370;2023-02-24T07:46:58;60.80;;;25.57;;
78740;SDS011;68062;48.726;9.370;2023-02-24T07:49:25;58.00;;;26.37;;
78740;SDS011;68062;48.726;9.370;2023-02-24T07:51:54;47.73;;;21.80;;
78740;SDS011;68062;48.726;9.370;2023-02-24T07:54:22;48.00;;;21.33;;
78740;SDS011;68062;48.726;9.370;2023-02-24T07:56:51;27.50;;;16.23;;
78740;SDS011;68062;48.726;9.370;2023-02-24T07:59:22;29.80;;;16.60;;
78740;SDS011;68062;48.726;9.370;2023-02-24T08:01:50;27.13;;;15.80;;
78740;SDS011;68062;48.726;9.370;2023-02-24T08:04:20;20.13;;;13.07;;
78740;SDS011;68062;48.726;9.370;2023-02-24T08:06:48;24.40;;;11.90;;
78740;SDS011;68062;48.726;9.370;2023-02-24T08:09:20;26.03;;;13.90;;
78740;SDS011;68062;48.726;9.370;2023-02-24T08:12:09;23.13;;;14.10;;
78740;SDS011;68062;48.726;9.370;2023-02-24T08:14:41;30.73;;;16.33;;
78740;SDS011;68062;48.726;9.370;2023-02-24T08:17:16;29.33;;;15.30;;
78740;SDS011;68062;48.726;9.370;2023-02-24T08:19:44;26.50;;;14.50;;
78740;SDS011;68062;48.726;9.370;2023-02-24T08:22:12;34.87;;;18.80;;
78740;SDS011;68062;48.726;9.370;2023-02-24T08:24:45;42.67;;;19.60;;
78740;SDS011;68062;48.726;9.370;2023-02-24T08:27:14;39.43;;;19.10;;
78740;SDS011;68062;48.726;9.370;2023-02-24T08:29:43;37.80;;;20.97;;
78740;SDS011;68062;48.726;9.370;2023-02-24T08:32:24;47.00;;;22.73;;
78740;SDS011;68062;48.726;9.370;2023-02-24T08:34:51;44.97;;;22.90;;
78740;SDS011;68062;48.726;9.370;2023-02-24T08:37:20;44.47;;;22.07;;
78740;SDS011;68062;48.726;9.370;2023-02-24T08:39:47;55.30;;;22.17;;
78740;SDS011;68062;48.726;9.370;2023-02-24T08:42:18;61.80;;;26.57;;
78740;SDS011;68062;48.726;9.370;2023-02-24T08:44:44;56.87;;;22.93;;
78740;SDS011;68062;48.726;9.370;2023-02-24T08:47:14;53.07;;;24.57;;
78740;SDS011;68062;48.726;9.370;2023-02-24T08:49:46;52.97;;;23.50;;
78740;SDS011;68062;48.726;9.370;2023-02-24T08:52:13;48.43;;;22.70;;
78740;SDS011;68062;48.726;9.370;2023-02-24T08:54:39;54.50;;;23.10;;
78740;SDS011;68062;48.726;9.370;2023-02-24T08:57:12;62.90;;;25.33;;
78740;SDS011;68062;48.726;9.370;2023-02-24T08:59:39;46.07;;;21.13;;
78740;SDS011;68062;48.726;9.370;2023-02-24T09:02:14;40.03;;;19.40;;
78740;SDS011;68062;48.726;9.370;2023-02-24T09:04:50;37.57;;;18.27;;
78740;SDS011;68062;48.726;9.370;2023-02-24T09:07:20;31.33;;;16.03;;
78740;SDS011;68062;48.726;9.370;2023-02-24T09:09:48;44.07;;;16.30;;
78740;SDS011;68062;48.726;9.370;2023-02-24T09:12:20;34.57;;;17.53;;
78740;SDS011;68062;48.726;9.370;2023-02-24T09:14:49;33.70;;;16.30;;
78740;SDS011;68062;48.726;9.370;2023-02-24T09:17:20;31.97;;;15.70;;
78740;SDS011;68062;48.726;9.370;2023-02-24T09:20:06;33.37;;;18.10;;
78740;SDS011;68062;48.726;9.370;2023-02-24T09:22:51;33.40;;;16.90;;
78740;SDS011;68062;48.726;9.370;2023-02-24T09:25:27;38.60;;;18.13;;
78740;SDS011;68062;48.726;9.370;2023-02-24T09:28:06;42.17;;;16.80;;
78740;SDS011;68062;48.726;9.370;2023-02-24T09:30:34;34.13;;;18.63;;
78740;SDS011;68062;48.726;9.370;2023-02-24T09:33:15;33.17;;;17.43;;
78740;SDS011;68062;48.726;9.370;2023-02-24T09:35:59;37.07;;;18.57;;
78740;SDS011;68062;48.726;9.370;2023-02-24T09:38:35;28.70;;;15.23;;
78740;SDS011;68062;48.726;9.370;2023-02-24T09:41:28;32.80;;;17.73;;
78740;SDS011;68062;48.726;9.370;2023-02-24T09:44:11;32.47;;;17.70;;
78740;SDS011;68062;48.726;9.370;2023-02-24T09:46:42;36.93;;;17.87;;
78740;SDS011;68062;48.726;9.370;2023-02-24T09:49:18;33.23;;;17.40;;
78740;SDS011;68062;48.726;9.370;2023-02-24T09:51:50;35.83;;;19.10;;
78740;SDS011;68062;48.726;9.370;2023-02-24T09:54:24;30.53;;;17.40;;
78740;SDS011;68062;48.726;9.370;2023-02-24T09:56:57;29.43;;;16.87;;
78740;SDS011;68062;48.726;9.370;2023-02-24T09:59:35;29.27;;;17.00;;
78740;SDS011;68062;48.726;9.370;2023-02-24T10:02:27;32.77;;;16.37;;
78740;SDS011;68062;48.726;9.370;2023-02-24T10:05:08;30.50;;;15.20;;
78740;SDS011;68062;48.726;9.370;2023-02-24T10:07:48;29.27;;;15.83;;
78740;SDS011;68062;48.726;9.370;2023-02-24T10:10:17;29.10;;;14.90;;
78740;SDS011;68062;48.726;9.370;2023-02-24T10:12:53;23.80;;;14.30;;
78740;SDS011;68062;48.726;9.370;2023-02-24T10:15:25;21.80;;;13.17;;
78740;SDS011;68062;48.726;9.370;2023-02-24T10:18:19;21.37;;;13.50;;
78740;SDS011;68062;48.726;9.370;2023-02-24T10:20:53;25.57;;;11.57;;
78740;SDS011;68062;48.726;9.370;2023-02-24T10:23:28;20.23;;;11.67;;
78740;SDS011;68062;48.726;9.370;2023-02-24T10:26:22;20.73;;;12.07;;
78740;SDS011;68062;48.726;9.370;2023-02-24T10:28:57;19.33;;;10.60;;
78740;SDS011;68062;48.726;9.370;2023-02-24T10:31:33;20.73;;;11.73;;
78740;SDS011;68062;48.726;9.370;2023-02-24T10:34:08;21.27;;;10.87;;
78740;SDS011;68062;48.726;9.370;2023-02-24T10:36:37;16.23;;;9.83;;
78740;SDS011;68062;48.726;9.370;2023-02-24T10:39:12;13.30;;;8.87;;
78740;SDS011;68062;48.726;9.370;2023-02-24T10:41:44;15.17;;;11.03;;
78740;SDS011;68062;48.726;9.370;2023-02-24T10:44:18;11.40;;;8.20;;
78740;SDS011;68062;48.726;9.370;2023-02-24T10:46:57;29.70;;;14.83;;
78740;SDS011;68062;48.726;9.370;2023-02-24T10:49:38;25.97;;;14.33;;
78740;SDS011;68062;48.726;9.370;2023-02-24T10:52:09;24.87;;;13.53;;
78740;SDS011;68062;48.726;9.370;2023-02-24T10:54:58;26.60;;;15.60;;
78740;SDS011;68062;48.726;9.370;2023-02-24T10:57:32;29.77;;;15.40;;
78740;SDS011;68062;48.726;9.370;2023-02-24T11:00:13;24.77;;;13.80;;
78740;SDS011;68062;48.726;9.370;2023-02-24T11:02:56;32.60;;;14.30;;
78740;SDS011;68062;48.726;9.370;2023-02-24T11:05:37;30.50;;;13.57;;
78740;SDS011;68062;48.726;9.370;2023-02-24T11:08:29;27.30;;;14.60;;
78740;SDS011;68062;48.726;9.370;2023-02-24T11:11:20;24.80;;;14.63;;
78740;SDS011;68062;48.726;9.370;2023-02-24T11:13:53;34.20;;;15.80;;
78740;SDS011;68062;48.726;9.370;2023-02-24T11:16:40;33.70;;;16.13;;
78740;SDS011;68062;48.726;9.370;2023-02-24T11:19:29;30.17;;;15.73;;
78740;SDS011;68062;48.726;9.370;2023-02-24T11:21:57;34.50;;;15.63;;
78740;SDS011;68062;48.726;9.370;2023-02-24T11:24:24;31.73;;;15.03;;
78740;SDS011;68062;48.726;9.370;2023-02-24T11:26:54;27.93;;;15.27;;
78740;SDS011;68062;48.726;9.370;2023-02-24T11:29:33;26.47;;;12.20;;
78740;SDS011;68062;48.726;9.370;2023-02-24T11:32:21;24.50;;;12.20;;
78740;SDS011;68062;48.726;9.370;2023-02-24T11:35:05;22.27;;;12.93;;
78740;SDS011;68062;48.726;9.370;2023-02-24T11:37:38;32.53;;;15.47;;
78740;SDS011;68062;48.726;9.370;2023-02-24T11:40:10;31.87;;;14.10;;
78740;SDS011;68062;48.726;9.370;2023-02-24T11:42:43;24.10;;;14.47;;
78740;SDS011;68062;48.726;9.370;2023-02-24T11:45:18;23.73;;;13.10;;
78740;SDS011;68062;48.726;9.370;2023-02-24T11:47:54;25.67;;;13.57;;
78740;SDS011;68062;48.726;9.370;2023-02-24T11:50:29;21.63;;;12.63;;
78740;SDS011;68062;48.726;9.370;2023-02-24T11:53:04;25.17;;;13.03;;
78740;SDS011;68062;48.726;9.370;2023-02-24T11:55:39;23.73;;;12.27;;
78740;SDS011;68062;48.726;9.370;2023-02-24T11:58:11;22.37;;;12.07;;
78740;SDS011;68062;48.726;9.370;2023-02-24T12:00:51;25.20;;;12.60;;
78740;SDS011;68062;48.726;9.370;2023-02-24T12:03:24;25.00;;;10.67;;
78740;SDS011;68062;48.726;9.370;2023-02-24T12:06:01;19.17;;;10.27;;
78740;SDS011;68062;48.726;9.370;2023-02-24T12:08:38;22.00;;;11.40;;
78740;SDS011;68062;48.726;9.370;2023-02-24T12:11:10;24.87;;;11.17;;
78740;SDS011;68062;48.726;9.370;2023-02-24T12:13:44;25.50;;;13.63;;
78740;SDS011;68062;48.726;9.370;2023-02-24T12:16:16;28.30;;;13.30;;
78740;SDS011;68062;48.726;9.370;2023-02-24T12:18:49;23.33;;;14.00;;
78740;SDS011;68062;48.726;9.370;2023-02-24T12:21:20;24.43;;;14.53;;
78740;SDS011;68062;48.726;9.370;2023-02-24T12:23:54;23.90;;;11.63;;
78740;SDS011;68062;48.726;9.370;2023-02-24T12:26:23;24.67;;;12.53;;
78740;SDS011;68062;48.726;9.370;2023-02-24T12:31:35;20.97;;;11.37;;
78740;SDS011;68062;48.726;9.370;2023-02-24T12:34:43;23.83;;;12.53;;
78740;SDS011;68062;48.726;9.370;2023-02-24T12:40:17;20.40;;;10.63;;
78740;SDS011;68062;48.726;9.370;2023-02-24T12:42:56;26.10;;;12.57;;
78740;SDS011;68062;48.726;9.370;2023-02-24T12:45:31;24.40;;;12.40;;
78740;SDS011;68062;48.726;9.370;2023-02-24T12:48:06;23.30;;;11.70;;
78740;SDS011;68062;48.726;9.370;2023-02-24T12:50:44;29.63;;;14.00;;
78740;SDS011;68062;48.726;9.370;2023-02-24T12:53:21;27.13;;;13.03;;
78740;SDS011;68062;48.726;9.370;2023-02-24T12:55:55;30.80;;;13.87;;
78740;SDS011;68062;48.726;9.370;2023-02-24T12:58:31;27.20;;;13.00;;
78740;SDS011;68062;48.726;9.370;2023-02-24T13:01:03;23.70;;;11.87;;
78740;SDS011;68062;48.726;9.370;2023-02-24T13:03:42;24.10;;;11.73;;
78740;SDS011;68062;48.726;9.370;2023-02-24T13:06:25;18.63;;;11.50;;
78740;SDS011;68062;48.726;9.370;2023-02-24T13:09:00;16.97;;;10.60;;
78740;SDS011;68062;48.726;9.370;2023-02-24T13:11:37;18.13;;;8.90;;
78740;SDS011;68062;48.726;9.370;2023-02-24T13:14:10;19.10;;;9.30;;
78740;SDS011;68062;48.726;9.370;2023-02-24T13:16:42;15.00;;;8.50;;
78740;SDS011;68062;48.726;9.370;2023-02-24T13:19:18;13.73;;;8.10;;
78740;SDS011;68062;48.726;9.370;2023-02-24T13:21:56;15.73;;;6.87;;
78740;SDS011;68062;48.726;9.370;2023-02-24T13:24:28;12.90;;;8.00;;
78740;SDS011;68062;48.726;9.370;2023-02-24T13:27:03;12.47;;;7.87;;
78740;SDS011;68062;48.726;9.370;2023-02-24T13:29:40;13.60;;;7.30;;
78740;SDS011;68062;48.726;9.370;2023-02-24T13:32:19;15.60;;;6.80;;
78740;SDS011;68062;48.726;9.370;2023-02-24T13:34:51;11.90;;;6.83;;
78740;SDS011;68062;48.726;9.370;2023-02-24T13:37:25;10.30;;;6.97;;
78740;SDS011;68062;48.726;9.370;2023-02-24T13:39:58;12.10;;;6.93;;
78740;SDS011;68062;48.726;9.370;2023-02-24T13:42:26;11.10;;;5.70;;
78740;SDS011;68062;48.726;9.370;2023-02-24T13:45:01;11.43;;;6.60;;
78740;SDS011;68062;48.726;9.370;2023-02-24T13:47:37;11.70;;;6.73;;
78740;SDS011;68062;48.726;9.370;2023-02-24T13:50:26;15.57;;;7.00;;
78740;SDS011;68062;48.726;9.370;2023-02-24T13:53:11;11.80;;;6.70;;
78740;SDS011;68062;48.726;9.370;2023-02-24T13:56:14;10.07;;;6.10;;
78740;SDS011;68062;48.726;9.370;2023-02-24T13:58:56;11.43;;;7.10;;
78740;SDS011;68062;48.726;9.370;2023-02-24T14:01:43;11.57;;;6.60;;
78740;SDS011;68062;48.726;9.370;2023-02-24T14:04:13;8.87;;;6.37;;
78740;SDS011;68062;48.726;9.370;2023-02-24T14:06:44;9.67;;;5.80;;
78740;SDS011;68062;48.726;9.370;2023-02-24T14:09:15;9.80;;;6.20;;
78740;SDS011;68062;48.726;9.370;2023-02-24T14:11:48;13.63;;;6.43;;
78740;SDS011;68062;48.726;9.370;2023-02-24T14:14:17;10.90;;;7.23;;
78740;SDS011;68062;48.726;9.370;2023-02-24T14:16:44;16.77;;;6.90;;
78740;SDS011;68062;48.726;9.370;2023-02-24T14:19:15;13.63;;;6.57;;
78740;SDS011;68062;48.726;9.370;2023-02-24T14:21:49;13.23;;;6.77;;
78740;SDS011;68062;48.726;9.370;2023-02-24T14:24:18;9.93;;;5.70;;
78740;SDS011;68062;48.726;9.370;2023-02-24T14:26:46;10.13;;;5.80;;
78740;SDS011;68062;48.726;9.370;2023-02-24T14:29:15;9.10;;;6.10;;
78740;SDS011;68062;48.726;9.370;2023-02-24T14:31:46;11.73;;;6.23;;
78740;SDS011;68062;48.726;9.370;2023-02-24T14:34:15;16.70;;;6.70;;
78740;SDS011;68062;48.726;9.370;2023-02-24T14:36:44;12.73;;;7.43;;
78740;SDS011;68062;48.726;9.370;2023-02-24T14:39:14;14.90;;;6.13;;
78740;SDS011;68062;48.726;9.370;2023-02-24T14:41:43;12.50;;;8.50;;
78740;SDS011;68062;48.726;9.370;2023-02-24T14:44:16;12.10;;;6.77;;
78740;SDS011;68062;48.726;9.370;2023-02-24T14:46:45;10.67;;;7.00;;
78740;SDS011;68062;48.726;9.370;2023-02-24T14:49:14;13.13;;;7.63;;
78740;SDS011;68062;48.726;9.370;2023-02-24T14:51:45;15.10;;;7.90;;
78740;SDS011;68062;48.726;9.370;2023-02-24T14:54:17;22.03;;;9.97;;
78740;SDS011;68062;48.726;9.370;2023-02-24T14:56:53;29.53;;;13.87;;
78740;SDS011;68062;48.726;9.370;2023-02-24T14:59:21;23.37;;;12.63;;
78740;SDS011;68062;48.726;9.370;2023-02-24T15:01:54;30.67;;;13.33;;
78740;SDS011;68062;48.726;9.370;2023-02-24T15:04:23;20.47;;;10.50;;
78740;SDS011;68062;48.726;9.370;2023-02-24T15:06:57;30.03;;;12.97;;